sensor_id;sensor_type;location;lat;lon;timestamp;pressure;altitude;pressure_sealevel;temperature;humidity
1401;BME280;46518;48.842;8.926;2023-07-20T00:01:00;96980.78;;;19.28;47.15
1401;BME280;46518;48.842;8.926;2023-07-20T00:03:28;96983.75;;;19.26;47.32
1401;BME280;46518;48.842;8.926;2023-07-20T00:05:58;96988.25;;;19.39;47.30
1401;BME280;46518;48.842;8.926;2023-07-20T00:08:26;96987.63;;;19.43;47.32
1401;BME280;46518;48.842;8.926;2023-07-20T00:10:54;97003.31;;;19.44;47.39
1401;BME280;46518;48.842;8.926;2023-07-20T00:13:23;96990.81;;;19.22;48.04
1401;BME280;46518;48.842;8.926;2023-07-20T00:15:51;96999.88;;;19.21;48.24
1401;BME280;46518;48.842;8.926;2023-07-20T00:18:20;96990.19;;;19.03;48.62
1401;BME280;46518;48.842;8.926;2023-07-20T00:20:49;96986.72;;;19.02;48.99
1401;BME280;46518;48.842;8.926;2023-07-20T00:23:19;96992.66;;;18.99;49.26
1401;BME280;46518;48.842;8.926;2023-07-20T00:25:50;96995.25;;;18.90;49.43
1401;BME280;46518;48.842;8.926;2023-07-20T00:28:18;96988.09;;;18.77;50.07
1401;BME280;46518;48.842;8.926;2023-07-20T00:30:48;96994.59;;;18.71;50.48
1401;BME280;46518;48.842;8.926;2023-07-20T00:33:17;96993.44;;;18.63;50.87
1401;BME280;46518;48.842;8.926;2023-07-20T00:35:46;96985.72;;;18.62;51.09
1401;BME280;46518;48.842;8.926;2023-07-20T00:38:16;96980.66;;;18.74;51.04
1401;BME280;46518;48.842;8.926;2023-07-20T00:40:45;96985.81;;;18.70;51.18
1401;BME280;46518;48.842;8.926;2023-07-20T00:43:17;96990.00;;;18.63;51.24
1401;BME280;46518;48.842;8.926;2023-07-20T00:45:46;96991.25;;;18.65;51.31
1401;BME280;46518;48.842;8.926;2023-07-20T00:48:14;96998.22;;;18.39;52.21
1401;BME280;46518;48.842;8.926;2023-07-20T00:50:43;97001.34;;;18.54;52.04
1401;BME280;46518;48.842;8.926;2023-07-20T00:53:12;96996.00;;;18.68;51.79
1401;BME280;46518;48.842;8.926;2023-07-20T00:55:40;96987.06;;;18.50;52.02
1401;BME280;46518;48.842;8.926;2023-07-20T00:58:10;97001.34;;;18.54;52.37
1401;BME280;46518;48.842;8.926;2023-07-20T01:00:38;96988.66;;;18.38;52.97
1401;BME280;46518;48.842;8.926;2023-07-20T01:03:07;97007.81;;;18.40;52.88
1401;BME280;46518;48.842;8.926;2023-07-20T01:05:40;97002.59;;;18.35;53.29
1401;BME280;46518;48.842;8.926;2023-07-20T01:08:15;96997.94;;;18.26;53.39
1401;BME280;46518;48.842;8.926;2023-07-20T01:10:52;96998.91;;;18.30;53.61
1401;BME280;46518;48.842;8.926;2023-07-20T01:13:23;97004.16;;;18.22;53.71
1401;BME280;46518;48.842;8.926;2023-07-20T01:15:56;97004.97;;;18.22;53.94
1401;BME280;46518;48.842;8.926;2023-07-20T01:18:26;96999.72;;;18.17;54.27
1401;BME280;46518;48.842;8.926;2023-07-20T01:20:59;97000.81;;;18.16;54.21
1401;BME280;46518;48.842;8.926;2023-07-20T01:24:05;96992.50;;;18.31;54.23
1401;BME280;46518;48.842;8.926;2023-07-20T01:27:06;96992.72;;;18.21;54.45
1401;BME280;46518;48.842;8.926;2023-07-20T01:29:53;97002.19;;;18.14;54.71
1401;BME280;46518;48.842;8.926;2023-07-20T01:32:27;96998.53;;;17.96;55.69
1401;BME280;46518;48.842;8.926;2023-07-20T01:34:58;96997.84;;;17.90;56.04
1401;BME280;46518;48.842;8.926;2023-07-20T01:37:27;96999.00;;;17.84;55.96
1401;BME280;46518;48.842;8.926;2023-07-20T01:39:59;97001.75;;;17.79;56.86
1401;BME280;46518;48.842;8.926;2023-07-20T01:42:28;96996.00;;;17.72;56.92
1401;BME280;46518;48.842;8.926;2023-07-20T01:44:57;96992.94;;;17.97;56.40
1401;BME280;46518;48.842;8.926;2023-07-20T01:47:26;96990.25;;;17.97;56.10
1401;BME280;46518;48.842;8.926;2023-07-20T01:49:55;96996.38;;;17.98;56.14
1401;BME280;46518;48.842;8.926;2023-07-20T01:52:23;96988.78;;;17.91;56.77
1401;BME280;46518;48.842;8.926;2023-07-20T01:54:51;96993.41;;;17.99;56.20
1401;BME280;46518;48.842;8.926;2023-07-20T01:57:19;96991.72;;;18.03;56.09
1401;BME280;46518;48.842;8.926;2023-07-20T01:59:47;96997.75;;;18.09;55.48
1401;BME280;46518;48.842;8.926;2023-07-20T02:02:16;96999.53;;;18.14;55.90
1401;BME280;46518;48.842;8.926;2023-07-20T02:04:46;96995.59;;;17.97;56.47
1401;BME280;46518;48.842;8.926;2023-07-20T02:07:14;96984.44;;;17.95;56.42
1401;BME280;46518;48.842;8.926;2023-07-20T02:09:42;96989.56;;;17.92;56.87
1401;BME280;46518;48.842;8.926;2023-07-20T02:12:10;96992.97;;;17.78;56.79
1401;BME280;46518;48.842;8.926;2023-07-20T02:14:39;96985.53;;;17.80;56.85
1401;BME280;46518;48.842;8.926;2023-07-20T02:17:07;96991.19;;;17.74;57.08
1401;BME280;46518;48.842;8.926;2023-07-20T02:19:40;96989.91;;;17.71;57.43
1401;BME280;46518;48.842;8.926;2023-07-20T02:22:10;96994.69;;;17.88;56.72
1401;BME280;46518;48.842;8.926;2023-07-20T02:24:38;96995.19;;;17.90;56.82
1401;BME280;46518;48.842;8.926;2023-07-20T02:27:10;96997.19;;;17.79;57.27
1401;BME280;46518;48.842;8.926;2023-07-20T02:29:38;96984.41;;;17.81;57.36
1401;BME280;46518;48.842;8.926;2023-07-20T02:32:07;96996.16;;;17.80;57.44
1401;BME280;46518;48.842;8.926;2023-07-20T02:34:36;96994.53;;;17.79;56.98
1401;BME280;46518;48.842;8.926;2023-07-20T02:37:05;96989.06;;;17.89;56.89
1401;BME280;46518;48.842;8.926;2023-07-20T02:39:38;97000.19;;;17.92;57.06
1401;BME280;46518;48.842;8.926;2023-07-20T02:42:06;96997.84;;;17.90;57.11
1401;BME280;46518;48.842;8.926;2023-07-20T02:44:34;97008.09;;;17.97;57.20
1401;BME280;46518;48.842;8.926;2023-07-20T02:47:03;97008.28;;;17.86;57.07
1401;BME280;46518;48.842;8.926;2023-07-20T02:49:31;97007.59;;;17.81;57.60
1401;BME280;46518;48.842;8.926;2023-07-20T02:52:00;97001.19;;;17.82;57.30
1401;BME280;46518;48.842;8.926;2023-07-20T02:54:29;97007.16;;;17.74;57.73
1401;BME280;46518;48.842;8.926;2023-07-20T02:56:59;97009.03;;;17.73;58.07
1401;BME280;46518;48.842;8.926;2023-07-20T02:59:28;97015.66;;;17.76;58.28
1401;BME280;46518;48.842;8.926;2023-07-20T03:01:56;97017.91;;;17.68;58.37
1401;BME280;46518;48.842;8.926;2023-07-20T03:04:26;97011.47;;;17.69;58.56
1401;BME280;46518;48.842;8.926;2023-07-20T03:06:54;97010.69;;;17.69;58.57
1401;BME280;46518;48.842;8.926;2023-07-20T03:09:23;97012.16;;;17.61;58.81
1401;BME280;46518;48.842;8.926;2023-07-20T03:11:51;97012.47;;;17.60;58.86
1401;BME280;46518;48.842;8.926;2023-07-20T03:14:21;97021.03;;;17.57;58.84
1401;BME280;46518;48.842;8.926;2023-07-20T03:16:50;97018.66;;;17.55;59.00
1401;BME280;46518;48.842;8.926;2023-07-20T03:19:19;97008.81;;;17.56;59.21
1401;BME280;46518;48.842;8.926;2023-07-20T03:21:47;97021.19;;;17.46;59.47
1401;BME280;46518;48.842;8.926;2023-07-20T03:24:16;97017.75;;;17.46;59.50
1401;BME280;46518;48.842;8.926;2023-07-20T03:26:46;97019.50;;;17.37;59.87
1401;BME280;46518;48.842;8.926;2023-07-20T03:29:15;97020.78;;;17.39;59.73
1401;BME280;46518;48.842;8.926;2023-07-20T03:31:46;97025.69;;;17.32;59.94
1401;BME280;46518;48.842;8.926;2023-07-20T03:34:16;97021.44;;;17.31;60.32
1401;BME280;46518;48.842;8.926;2023-07-20T03:36:44;97022.75;;;17.34;60.21
1401;BME280;46518;48.842;8.926;2023-07-20T03:39:12;97020.34;;;17.32;60.24
1401;BME280;46518;48.842;8.926;2023-07-20T03:41:41;97028.34;;;17.32;60.08
1401;BME280;46518;48.842;8.926;2023-07-20T03:44:09;97031.81;;;17.33;60.29
1401;BME280;46518;48.842;8.926;2023-07-20T03:46:38;97026.19;;;17.34;60.23
1401;BME280;46518;48.842;8.926;2023-07-20T03:49:07;97021.44;;;17.31;60.03
1401;BME280;46518;48.842;8.926;2023-07-20T03:51:37;97025.47;;;17.29;60.18
1401;BME280;46518;48.842;8.926;2023-07-20T03:54:05;97025.47;;;17.29;60.61
1401;BME280;46518;48.842;8.926;2023-07-20T03:56:34;97028.50;;;17.22;60.95
1401;BME280;46518;48.842;8.926;2023-07-20T03:59:03;97022.28;;;17.13;61.34
1401;BME280;46518;48.842;8.926;2023-07-20T04:01:31;97035.44;;;17.04;61.82
1401;BME280;46518;48.842;8.926;2023-07-20T04:04:05;97042.69;;;16.98;62.29
1401;BME280;46518;48.842;8.926;2023-07-20T04:06:35;97037.09;;;17.00;62.37
1401;BME280;46518;48.842;8.926;2023-07-20T04:09:04;97041.84;;;17.03;62.24
1401;BME280;46518;48.842;8.926;2023-07-20T04:11:32;97043.19;;;17.00;62.40
1401;BME280;46518;48.842;8.926;2023-07-20T04:14:01;97044.19;;;17.04;62.85
1401;BME280;46518;48.842;8.926;2023-07-20T04:16:29;97050.66;;;16.98;62.76
1401;BME280;46518;48.842;8.926;2023-07-20T04:18:57;97043.19;;;17.00;62.98
1401;BME280;46518;48.842;8.926;2023-07-20T04:21:27;97048.78;;;16.99;63.12
1401;BME280;46518;48.842;8.926;2023-07-20T04:23:57;97048.28;;;16.97;63.33
1401;BME280;46518;48.842;8.926;2023-07-20T04:26:25;97037.72;;;16.92;63.58
1401;BME280;46518;48.842;8.926;2023-07-20T04:28:54;97047.75;;;17.00;63.81
1401;BME280;46518;48.842;8.926;2023-07-20T04:31:33;97046.00;;;17.09;63.61
1401;BME280;46518;48.842;8.926;2023-07-20T04:34:03;97045.91;;;17.14;64.00
1401;BME280;46518;48.842;8.926;2023-07-20T04:36:34;97047.28;;;17.12;64.27
1401;BME280;46518;48.842;8.926;2023-07-20T04:39:04;97050.44;;;17.14;64.05
1401;BME280;46518;48.842;8.926;2023-07-20T04:41:47;97046.13;;;17.18;63.77
1401;BME280;46518;48.842;8.926;2023-07-20T04:44:17;97049.56;;;17.18;63.65
1401;BME280;46518;48.842;8.926;2023-07-20T04:46:45;97044.53;;;17.17;63.51
1401;BME280;46518;48.842;8.926;2023-07-20T04:49:14;97053.03;;;17.19;63.97
1401;BME280;46518;48.842;8.926;2023-07-20T04:51:45;97047.19;;;17.17;63.60
1401;BME280;46518;48.842;8.926;2023-07-20T04:54:14;97052.25;;;17.18;63.72
1401;BME280;46518;48.842;8.926;2023-07-20T04:56:44;97050.00;;;17.25;63.74
1401;BME280;46518;48.842;8.926;2023-07-20T04:59:14;97055.31;;;17.25;63.90
1401;BME280;46518;48.842;8.926;2023-07-20T05:01:42;97051.13;;;17.38;64.16
1401;BME280;46518;48.842;8.926;2023-07-20T05:04:10;97046.09;;;17.37;63.26
1401;BME280;46518;48.842;8.926;2023-07-20T05:06:45;97047.81;;;17.46;63.27
1401;BME280;46518;48.842;8.926;2023-07-20T05:09:15;97050.19;;;17.48;63.05
1401;BME280;46518;48.842;8.926;2023-07-20T05:11:43;97046.50;;;17.44;63.04
1401;BME280;46518;48.842;8.926;2023-07-20T05:14:14;97045.06;;;17.52;63.21
1401;BME280;46518;48.842;8.926;2023-07-20T05:16:43;97049.50;;;17.56;63.08
1401;BME280;46518;48.842;8.926;2023-07-20T05:19:11;97050.53;;;17.60;63.27
1401;BME280;46518;48.842;8.926;2023-07-20T05:21:40;97053.19;;;17.60;62.94
1401;BME280;46518;48.842;8.926;2023-07-20T05:24:08;97048.91;;;17.59;62.86
1401;BME280;46518;48.842;8.926;2023-07-20T05:26:38;97048.06;;;17.64;62.94
1401;BME280;46518;48.842;8.926;2023-07-20T05:29:06;97046.25;;;17.59;62.89
1401;BME280;46518;48.842;8.926;2023-07-20T05:31:34;97047.53;;;17.81;62.92
1401;BME280;46518;48.842;8.926;2023-07-20T05:34:02;97046.16;;;17.83;62.41
1401;BME280;46518;48.842;8.926;2023-07-20T05:36:30;97042.25;;;17.95;62.26
1401;BME280;46518;48.842;8.926;2023-07-20T05:38:58;97042.84;;;18.05;61.88
1401;BME280;46518;48.842;8.926;2023-07-20T05:41:27;97043.63;;;18.20;62.53
1401;BME280;46518;48.842;8.926;2023-07-20T05:44:17;97026.75;;;18.24;61.89
1401;BME280;46518;48.842;8.926;2023-07-20T05:46:46;97043.72;;;18.42;61.82
1401;BME280;46518;48.842;8.926;2023-07-20T05:49:24;97041.91;;;18.51;62.72
1401;BME280;46518;48.842;8.926;2023-07-20T05:51:52;97034.69;;;18.66;62.44
1401;BME280;46518;48.842;8.926;2023-07-20T05:54:20;97035.88;;;18.73;61.54
1401;BME280;46518;48.842;8.926;2023-07-20T05:56:48;97039.22;;;18.79;60.95
1401;BME280;46518;48.842;8.926;2023-07-20T05:59:18;97048.09;;;18.88;60.91
1401;BME280;46518;48.842;8.926;2023-07-20T06:01:46;97038.72;;;18.91;61.08
1401;BME280;46518;48.842;8.926;2023-07-20T06:04:16;97047.47;;;19.05;60.40
1401;BME280;46518;48.842;8.926;2023-07-20T06:06:44;97042.97;;;19.14;61.38
1401;BME280;46518;48.842;8.926;2023-07-20T06:09:13;97045.72;;;19.23;60.18
1401;BME280;46518;48.842;8.926;2023-07-20T06:11:41;97046.44;;;19.15;59.40
1401;BME280;46518;48.842;8.926;2023-07-20T06:14:10;97048.13;;;19.11;60.29
1401;BME280;46518;48.842;8.926;2023-07-20T06:16:39;97050.88;;;19.20;59.92
1401;BME280;46518;48.842;8.926;2023-07-20T06:19:07;97054.72;;;19.27;60.39
1401;BME280;46518;48.842;8.926;2023-07-20T06:21:38;97051.72;;;19.29;60.08
1401;BME280;46518;48.842;8.926;2023-07-20T06:24:06;97054.72;;;19.50;59.73
1401;BME280;46518;48.842;8.926;2023-07-20T06:26:34;97056.94;;;19.56;59.09
1401;BME280;46518;48.842;8.926;2023-07-20T06:29:06;97056.16;;;19.56;58.81
1401;BME280;46518;48.842;8.926;2023-07-20T06:31:34;97050.88;;;19.65;59.33
1401;BME280;46518;48.842;8.926;2023-07-20T06:34:04;97053.34;;;19.83;58.91
1401;BME280;46518;48.842;8.926;2023-07-20T06:36:32;97045.84;;;19.94;57.80
1401;BME280;46518;48.842;8.926;2023-07-20T06:39:01;97042.94;;;20.04;56.65
1401;BME280;46518;48.842;8.926;2023-07-20T06:41:32;97045.28;;;20.06;57.65
1401;BME280;46518;48.842;8.926;2023-07-20T06:44:03;97043.59;;;20.10;56.80
1401;BME280;46518;48.842;8.926;2023-07-20T06:46:32;97040.28;;;20.13;56.36
1401;BME280;46518;48.842;8.926;2023-07-20T06:49:00;97040.00;;;20.15;56.63
1401;BME280;46518;48.842;8.926;2023-07-20T06:51:32;97040.63;;;20.20;56.78
1401;BME280;46518;48.842;8.926;2023-07-20T06:54:01;97046.63;;;20.26;56.36
1401;BME280;46518;48.842;8.926;2023-07-20T06:56:31;97041.91;;;20.32;56.09
1401;BME280;46518;48.842;8.926;2023-07-20T06:59:00;97028.72;;;20.35;55.42
1401;BME280;46518;48.842;8.926;2023-07-20T07:01:29;97035.78;;;20.31;55.25
1401;BME280;46518;48.842;8.926;2023-07-20T07:03:57;97032.84;;;20.50;53.68
1401;BME280;46518;48.842;8.926;2023-07-20T07:06:26;97033.63;;;20.42;55.58
1401;BME280;46518;48.842;8.926;2023-07-20T07:08:57;97042.09;;;20.44;55.01
1401;BME280;46518;48.842;8.926;2023-07-20T07:11:25;97043.59;;;20.59;55.18
1401;BME280;46518;48.842;8.926;2023-07-20T07:13:54;97037.16;;;20.60;55.22
1401;BME280;46518;48.842;8.926;2023-07-20T07:16:23;97044.31;;;20.42;55.75
1401;BME280;46518;48.842;8.926;2023-07-20T07:18:52;97040.09;;;20.50;55.51
1401;BME280;46518;48.842;8.926;2023-07-20T07:21:26;97032.09;;;20.58;55.03
1401;BME280;46518;48.842;8.926;2023-07-20T07:23:54;97033.16;;;20.48;55.27
1401;BME280;46518;48.842;8.926;2023-07-20T07:26:26;97035.59;;;20.19;55.14
1401;BME280;46518;48.842;8.926;2023-07-20T07:28:54;97029.72;;;20.08;54.97
1401;BME280;46518;48.842;8.926;2023-07-20T07:31:22;97042.38;;;19.85;55.97
1401;BME280;46518;48.842;8.926;2023-07-20T07:33:52;97040.34;;;19.91;56.19
1401;BME280;46518;48.842;8.926;2023-07-20T07:36:21;97039.84;;;20.20;55.77
1401;BME280;46518;48.842;8.926;2023-07-20T07:38:51;97035.16;;;20.34;55.34
1401;BME280;46518;48.842;8.926;2023-07-20T07:41:22;97033.94;;;20.40;56.11
1401;BME280;46518;48.842;8.926;2023-07-20T07:43:52;97034.63;;;20.63;55.79
1401;BME280;46518;48.842;8.926;2023-07-20T07:46:20;97037.09;;;20.51;56.25
1401;BME280;46518;48.842;8.926;2023-07-20T07:48:49;97039.34;;;20.66;55.56
1401;BME280;46518;48.842;8.926;2023-07-20T07:51:17;97035.09;;;20.74;55.31
1401;BME280;46518;48.842;8.926;2023-07-20T07:53:46;97035.94;;;20.92;56.26
1401;BME280;46518;48.842;8.926;2023-07-20T07:56:16;97038.91;;;20.64;53.54
1401;BME280;46518;48.842;8.926;2023-07-20T07:58:49;97028.97;;;20.65;53.54
1401;BME280;46518;48.842;8.926;2023-07-20T08:01:20;97034.31;;;20.74;54.89
1401;BME280;46518;48.842;8.926;2023-07-20T08:03:49;97033.69;;;20.59;55.42
1401;BME280;46518;48.842;8.926;2023-07-20T08:06:18;97039.03;;;20.59;55.20
1401;BME280;46518;48.842;8.926;2023-07-20T08:08:46;97036.59;;;20.40;53.87
1401;BME280;46518;48.842;8.926;2023-07-20T08:11:15;97036.66;;;20.58;52.55
1401;BME280;46518;48.842;8.926;2023-07-20T08:13:44;97026.31;;;20.82;52.57
1401;BME280;46518;48.842;8.926;2023-07-20T08:16:13;97034.03;;;20.93;53.18
1401;BME280;46518;48.842;8.926;2023-07-20T08:18:43;97038.75;;;20.87;52.01
1401;BME280;46518;48.842;8.926;2023-07-20T08:21:12;97036.38;;;20.94;51.37
1401;BME280;46518;48.842;8.926;2023-07-20T08:23:41;97030.59;;;20.92;51.02
1401;BME280;46518;48.842;8.926;2023-07-20T08:26:09;97021.59;;;21.23;51.12
1401;BME280;46518;48.842;8.926;2023-07-20T08:28:38;97023.16;;;21.24;50.05
1401;BME280;46518;48.842;8.926;2023-07-20T08:31:06;97029.94;;;20.86;51.08
1401;BME280;46518;48.842;8.926;2023-07-20T08:33:34;97030.09;;;20.73;51.29
1401;BME280;46518;48.842;8.926;2023-07-20T08:36:04;97031.97;;;20.72;51.44
1401;BME280;46518;48.842;8.926;2023-07-20T08:38:38;97044.00;;;20.43;52.55
1401;BME280;46518;48.842;8.926;2023-07-20T08:41:06;97041.78;;;20.37;52.62
1401;BME280;46518;48.842;8.926;2023-07-20T08:43:36;97049.00;;;20.28;53.48
1401;BME280;46518;48.842;8.926;2023-07-20T08:46:05;97043.06;;;20.48;53.55
1401;BME280;46518;48.842;8.926;2023-07-20T08:48:33;97039.19;;;20.72;54.68
1401;BME280;46518;48.842;8.926;2023-07-20T08:51:05;97042.84;;;20.93;52.08
1401;BME280;46518;48.842;8.926;2023-07-20T08:53:33;97038.47;;;21.15;51.61
1401;BME280;46518;48.842;8.926;2023-07-20T08:56:02;97037.81;;;21.09;51.37
1401;BME280;46518;48.842;8.926;2023-07-20T08:58:31;97026.66;;;21.24;51.64
1401;BME280;46518;48.842;8.926;2023-07-20T09:01:01;97015.75;;;21.56;49.01
1401;BME280;46518;48.842;8.926;2023-07-20T09:03:29;97026.28;;;21.61;48.34
1401;BME280;46518;48.842;8.926;2023-07-20T09:05:59;97026.44;;;21.38;46.34
1401;BME280;46518;48.842;8.926;2023-07-20T09:08:29;97037.34;;;21.16;46.94
1401;BME280;46518;48.842;8.926;2023-07-20T09:10:58;97025.53;;;21.08;46.67
1401;BME280;46518;48.842;8.926;2023-07-20T09:13:26;97027.88;;;21.53;48.58
1401;BME280;46518;48.842;8.926;2023-07-20T09:15:54;97015.75;;;21.64;44.84
1401;BME280;46518;48.842;8.926;2023-07-20T09:18:23;97025.97;;;21.36;44.55
1401;BME280;46518;48.842;8.926;2023-07-20T09:20:52;97016.88;;;21.37;44.59
1401;BME280;46518;48.842;8.926;2023-07-20T09:23:31;97029.59;;;21.49;43.46
1401;BME280;46518;48.842;8.926;2023-07-20T09:26:00;97029.94;;;21.47;43.86
1401;BME280;46518;48.842;8.926;2023-07-20T09:28:28;97025.69;;;21.46;41.93
1401;BME280;46518;48.842;8.926;2023-07-20T09:30:56;97017.31;;;21.57;43.03
1401;BME280;46518;48.842;8.926;2023-07-20T09:33:25;97018.41;;;21.64;41.92
1401;BME280;46518;48.842;8.926;2023-07-20T09:36:02;97017.38;;;21.86;42.23
1401;BME280;46518;48.842;8.926;2023-07-20T09:38:51;97017.00;;;22.05;43.50
1401;BME280;46518;48.842;8.926;2023-07-20T09:41:22;97028.13;;;22.16;43.50
1401;BME280;46518;48.842;8.926;2023-07-20T09:43:53;97016.78;;;22.19;42.33
1401;BME280;46518;48.842;8.926;2023-07-20T09:46:22;97009.66;;;22.32;41.45
1401;BME280;46518;48.842;8.926;2023-07-20T09:48:54;97015.22;;;22.27;40.51
1401;BME280;46518;48.842;8.926;2023-07-20T09:51:25;97016.94;;;22.14;40.70
1401;BME280;46518;48.842;8.926;2023-07-20T09:53:55;97013.81;;;22.12;40.51
1401;BME280;46518;48.842;8.926;2023-07-20T09:56:25;97012.53;;;22.18;41.87
1401;BME280;46518;48.842;8.926;2023-07-20T09:58:55;97014.09;;;22.28;39.25
1401;BME280;46518;48.842;8.926;2023-07-20T10:01:24;97017.88;;;22.27;41.28
1401;BME280;46518;48.842;8.926;2023-07-20T10:03:55;97008.94;;;22.44;39.09
1401;BME280;46518;48.842;8.926;2023-07-20T11:27:15;96969.63;;;23.32;32.90
1401;BME280;46518;48.842;8.926;2023-07-20T11:29:45;96966.19;;;23.10;32.99
1401;BME280;46518;48.842;8.926;2023-07-20T11:32:20;96963.28;;;23.15;33.58
1401;BME280;46518;48.842;8.926;2023-07-20T11:34:48;96958.31;;;23.38;35.29
1401;BME280;46518;48.842;8.926;2023-07-20T11:37:18;96952.63;;;23.52;35.52
1401;BME280;46518;48.842;8.926;2023-07-20T11:39:46;96945.88;;;23.34;36.02
1401;BME280;46518;48.842;8.926;2023-07-20T11:42:19;96954.69;;;23.22;33.96
1401;BME280;46518;48.842;8.926;2023-07-20T11:44:51;96945.63;;;23.14;34.60
1401;BME280;46518;48.842;8.926;2023-07-20T11:47:19;96956.44;;;23.51;34.11
1401;BME280;46518;48.842;8.926;2023-07-20T11:49:47;96951.97;;;23.55;32.74
1401;BME280;46518;48.842;8.926;2023-07-20T11:52:16;96956.53;;;23.42;31.12
1401;BME280;46518;48.842;8.926;2023-07-20T11:54:45;96948.47;;;23.42;31.73
1401;BME280;46518;48.842;8.926;2023-07-20T11:57:17;96942.63;;;23.98;33.71
1401;BME280;46518;48.842;8.926;2023-07-20T11:59:56;96934.91;;;23.97;32.58
1401;BME280;46518;48.842;8.926;2023-07-20T12:02:27;96929.16;;;23.86;32.06
1401;BME280;46518;48.842;8.926;2023-07-20T12:04:56;96932.22;;;23.97;33.57
1401;BME280;46518;48.842;8.926;2023-07-20T12:07:27;96930.06;;;23.90;30.60
1401;BME280;46518;48.842;8.926;2023-07-20T12:10:06;96915.97;;;23.81;30.95
1401;BME280;46518;48.842;8.926;2023-07-20T12:12:37;96922.47;;;23.80;30.60
1401;BME280;46518;48.842;8.926;2023-07-20T12:15:15;96932.72;;;23.65;31.45
1401;BME280;46518;48.842;8.926;2023-07-20T12:17:44;96924.25;;;24.00;30.76
1401;BME280;46518;48.842;8.926;2023-07-20T12:20:12;96926.69;;;24.30;30.10
1401;BME280;46518;48.842;8.926;2023-07-20T12:22:42;96924.00;;;24.18;29.74
1401;BME280;46518;48.842;8.926;2023-07-20T12:25:11;96905.13;;;24.54;29.94
1401;BME280;46518;48.842;8.926;2023-07-20T12:27:40;96904.47;;;24.45;30.43
1401;BME280;46518;48.842;8.926;2023-07-20T12:30:09;96914.38;;;24.29;30.94
1401;BME280;46518;48.842;8.926;2023-07-20T12:32:38;96909.00;;;24.17;30.78
1401;BME280;46518;48.842;8.926;2023-07-20T12:35:06;96913.56;;;24.28;33.32
1401;BME280;46518;48.842;8.926;2023-07-20T12:37:35;96898.19;;;24.41;32.45
1401;BME280;46518;48.842;8.926;2023-07-20T12:40:04;96908.59;;;24.43;31.91
1401;BME280;46518;48.842;8.926;2023-07-20T12:42:37;96901.78;;;24.33;31.59
1401;BME280;46518;48.842;8.926;2023-07-20T12:45:08;96891.38;;;24.31;29.77
1401;BME280;46518;48.842;8.926;2023-07-20T12:47:38;96893.28;;;24.31;32.73
1401;BME280;46518;48.842;8.926;2023-07-20T12:50:07;96899.88;;;24.33;30.22
1401;BME280;46518;48.842;8.926;2023-07-20T12:52:36;96877.09;;;24.43;30.93
1401;BME280;46518;48.842;8.926;2023-07-20T12:55:06;96888.59;;;24.68;31.57
1401;BME280;46518;48.842;8.926;2023-07-20T12:57:36;96894.13;;;24.60;30.06
1401;BME280;46518;48.842;8.926;2023-07-20T13:00:09;96887.63;;;25.05;30.47
1401;BME280;46518;48.842;8.926;2023-07-20T13:02:38;96880.31;;;24.89;28.63
1401;BME280;46518;48.842;8.926;2023-07-20T13:05:07;96863.53;;;25.24;29.37
1401;BME280;46518;48.842;8.926;2023-07-20T13:07:37;96866.84;;;25.33;31.49
1401;BME280;46518;48.842;8.926;2023-07-20T13:10:10;96866.38;;;25.63;30.85
1401;BME280;46518;48.842;8.926;2023-07-20T13:12:38;96866.66;;;25.58;28.61
1401;BME280;46518;48.842;8.926;2023-07-20T13:15:09;96864.50;;;25.48;30.20
1401;BME280;46518;48.842;8.926;2023-07-20T13:17:39;96871.22;;;24.94;28.30
1401;BME280;46518;48.842;8.926;2023-07-20T13:20:09;96878.19;;;24.67;27.48
1401;BME280;46518;48.842;8.926;2023-07-20T13:22:38;96877.25;;;24.47;28.17
1401;BME280;46518;48.842;8.926;2023-07-20T13:25:08;96867.38;;;24.79;29.08
1401;BME280;46518;48.842;8.926;2023-07-20T13:27:36;96867.25;;;24.75;26.98
1401;BME280;46518;48.842;8.926;2023-07-20T13:30:06;96866.41;;;24.87;27.38
1401;BME280;46518;48.842;8.926;2023-07-20T13:32:38;96865.91;;;24.82;27.29
1401;BME280;46518;48.842;8.926;2023-07-20T13:35:11;96840.63;;;24.86;25.51
1401;BME280;46518;48.842;8.926;2023-07-20T13:37:39;96865.91;;;24.97;29.16
1401;BME280;46518;48.842;8.926;2023-07-20T13:40:08;96858.41;;;25.19;26.26
1401;BME280;46518;48.842;8.926;2023-07-20T13:42:39;96864.16;;;24.89;26.48
1401;BME280;46518;48.842;8.926;2023-07-20T13:45:08;96856.16;;;24.93;27.51
1401;BME280;46518;48.842;8.926;2023-07-20T13:47:37;96860.59;;;24.85;26.55
1401;BME280;46518;48.842;8.926;2023-07-20T13:50:06;96861.19;;;24.79;27.31
1401;BME280;46518;48.842;8.926;2023-07-20T13:52:51;96845.84;;;25.11;27.59
1401;BME280;46518;48.842;8.926;2023-07-20T13:55:39;96840.56;;;25.14;26.36
1401;BME280;46518;48.842;8.926;2023-07-20T13:58:10;96841.81;;;25.17;26.62
1401;BME280;46518;48.842;8.926;2023-07-20T14:00:39;96835.84;;;25.24;26.73
1401;BME280;46518;48.842;8.926;2023-07-20T14:03:09;96831.50;;;25.19;27.01
1401;BME280;46518;48.842;8.926;2023-07-20T14:05:40;96833.03;;;25.20;25.90
1401;BME280;46518;48.842;8.926;2023-07-20T14:08:13;96832.25;;;25.20;26.73
1401;BME280;46518;48.842;8.926;2023-07-20T14:10:41;96820.84;;;25.58;27.29
1401;BME280;46518;48.842;8.926;2023-07-20T14:13:13;96821.53;;;25.55;27.65
1401;BME280;46518;48.842;8.926;2023-07-20T14:15:41;96814.69;;;25.26;27.55
1401;BME280;46518;48.842;8.926;2023-07-20T14:18:11;96819.16;;;25.34;26.29
1401;BME280;46518;48.842;8.926;2023-07-20T14:20:40;96824.41;;;25.14;25.84
1401;BME280;46518;48.842;8.926;2023-07-20T14:23:08;96820.13;;;25.13;27.27
1401;BME280;46518;48.842;8.926;2023-07-20T14:25:36;96826.88;;;25.51;26.76
1401;BME280;46518;48.842;8.926;2023-07-20T14:28:04;96817.75;;;25.40;26.61
1401;BME280;46518;48.842;8.926;2023-07-20T14:30:33;96820.78;;;25.38;26.69
1401;BME280;46518;48.842;8.926;2023-07-20T14:33:01;96812.34;;;25.40;27.23
1401;BME280;46518;48.842;8.926;2023-07-20T14:35:31;96814.59;;;25.54;27.22
1401;BME280;46518;48.842;8.926;2023-07-20T14:37:59;96808.97;;;25.78;28.23
1401;BME280;46518;48.842;8.926;2023-07-20T14:40:27;96807.69;;;26.08;26.24
1401;BME280;46518;48.842;8.926;2023-07-20T14:42:56;96809.34;;;25.77;26.21
1401;BME280;46518;48.842;8.926;2023-07-20T14:45:25;96799.59;;;25.72;26.31